Latest Coastal Weather Observations for Onslow Airport

IDW60701

Issued at 3:15 pm WST Saturday 26 July 2014 (issued every 10 minutes, with the page automatically refreshed every 10 minutes)

About coastal observations | Map of coastal stations | Coastal observations for WA | Marine services | Other Formats
Station Details ID: 005017 Name: ONSLOW AIRPORT Lat: -21.67 Lon: 115.11 Height: 10.5 m
Data from the previous 72 hours. | See also: Recent months at Onslow Airport
Date/Time
WST
Temp

°C
Wind Pressure Rain
since 9am
mm
Weather Cloud Vis
km
Sea
Height
m
Swell
Dir
 
Speed
knots
Gust
knots
hPa Trend Height
m
Period
s
Dir
26/03:00pm 25.0 NNW 10 13 1020.1 - 0.0 - - - - - - -
26/02:30pm 24.7 N 11 14 1020.1 - 0.0 - - - - - - -
26/02:00pm 25.7 N 10 11 1020.5 - 0.0 - - - - - - -
26/01:30pm 25.4 E 8 12 1020.9 - 0.0 - - - - - - -
26/01:00pm 24.9 SE 6 10 1021.3 - 0.0 - - - - - - -
26/12:30pm 24.3 ESE 7 9 1021.9 - 0.0 - - - - - - -
26/12:00pm 24.2 ESE 7 10 1022.4 - 0.0 - - - - - - -
26/11:30am 23.7 SE 8 11 1022.9 - 0.0 - - - - - - -
26/11:00am 23.1 SE 9 12 1023.4 - 0.0 - - - - - - -
26/10:30am 22.8 SE 9 11 1023.7 - 0.0 - - - - - - -
26/10:00am 21.5 SE 8 9 1023.9 - 0.0 - - - - - - -
26/09:30am 19.3 ESE 7 8 1023.9 - 0.0 - - - - - - -
26/09:00am 16.7 ESE 7 8 1023.6 - 0.0 - - - - - - -
26/08:30am 14.9 ESE 6 8 1023.2 - 0.0 - - - - - - -
26/08:00am 13.3 ESE 5 6 1022.8 - 0.0 - - - - - - -
26/07:30am 11.6 ESE 5 5 1022.3 - 0.0 - - - - - - -
26/07:00am 10.3 E 5 7 1021.9 - 0.0 - - - - - - -
26/06:30am 10.4 ESE 5 6 1021.6 - 0.0 - - - - - - -
26/06:00am 10.6 ESE 5 6 1021.2 - 0.0 - - - - - - -
26/05:30am 10.8 E 5 6 1020.9 - 0.0 - - - - - - -
26/05:00am 10.5 E 5 6 1020.7 - 0.0 - - - - - - -
26/04:30am 10.9 ESE 5 6 1020.6 - 0.0 - - - - - - -
26/04:00am 10.7 SE 3 4 1020.7 - 0.0 - - - - - - -
26/03:30am 10.8 SE 5 6 1020.7 - 0.0 - - - - - - -
26/03:00am 10.6 SSE 6 7 1020.9 - 0.0 - - - - - - -
26/02:30am 10.7 SSE 6 7 1020.9 - 0.0 - - - - - - -
26/02:00am 11.0 SSE 6 6 1020.9 - 0.0 - - - - - - -
26/01:30am 11.4 SSE 7 8 1021.1 - 0.0 - - - - - - -
26/01:00am 11.6 SSE 7 8 1021.2 - 0.0 - - - - - - -
26/12:30am 11.5 SSE 7 9 1021.3 - 0.0 - - - - - - -
26/12:00am 12.7 SE 4 5 1021.3 - 0.0 - - - - - - -
 
Date/Time
WST
Temp

°C
Wind Pressure Rain
since 9am
mm
Weather Cloud Vis
km
Sea
Height
m
Swell
Dir
 
Speed
knots
Gust
knots
hPa Trend Height
m
Period
s
Dir
25/11:30pm 13.6 SE 5 6 1021.4 - 0.0 - - - - - - -
25/11:00pm 14.0 ENE 5 5 1021.3 - 0.0 - - - - - - -
25/10:30pm 15.1 NE 3 4 1021.4 - 0.0 - - - - - - -
25/10:00pm 15.0 ENE 3 4 1021.6 - 0.0 - - - - - - -
25/09:30pm 15.7 NE 4 4 1021.6 - 0.0 - - - - - - -
25/09:00pm 15.8 N 5 5 1021.4 - 0.0 - - - - - - -
25/08:30pm 15.6 N 4 5 1021.3 - 0.0 - - - - - - -
25/08:00pm 16.1 N 6 6 1021.0 - 0.0 - - - - - - -
25/07:30pm 15.9 N 7 7 1020.8 - 0.0 - - - - - - -
25/07:00pm 16.9 N 6 7 1020.6 - 0.0 - - - - - - -
25/06:30pm 17.5 N 8 9 1020.2 - 0.0 - - - - - - -
25/06:00pm 18.1 N 9 12 1019.8 - 0.0 - - - - - - -
25/05:30pm 19.4 N 12 15 1019.7 - 0.0 - - - - - - -
25/05:00pm 20.0 N 13 16 1019.6 - 0.0 - - - - - - -
25/04:30pm 20.6 N 15 19 1019.6 - 0.0 - - - - - - -
25/04:00pm 21.0 N 15 19 1019.7 - 0.0 - - - - - - -
25/03:30pm 21.5 N 16 19 1019.8 - 0.0 - - - - - - -
25/03:00pm 21.6 N 17 20 1019.7 - 0.0 - - - - - - -
25/02:30pm 21.7 N 17 21 1019.9 - 0.0 - - - - - - -
25/02:00pm 21.8 N 16 20 1020.0 - 0.0 - - - - - - -
25/01:30pm 22.0 N 16 19 1020.2 - 0.0 - - - - - - -
25/01:00pm 22.1 N 16 22 1020.7 - 0.0 - - - - - - -
25/12:30pm 22.1 NNE 17 20 1021.1 - 0.0 - - - - - - -
25/12:00pm 22.3 NNE 16 20 1021.5 - 0.0 - - - - - - -
25/11:30am 22.2 NNE 18 22 1022.0 - 0.0 - - - - - - -
25/11:00am 21.8 NNE 17 21 1022.3 - 0.0 - - - - - - -
25/10:30am 21.9 ENE 17 20 1022.3 - 0.0 - - - - - - -
25/10:00am 21.2 NE 19 23 1022.3 - 0.0 - - - - - - -
25/09:30am 20.8 ENE 18 22 1022.4 - 0.0 - - - - - - -
25/09:00am 18.6 ENE 15 18 1022.5 - 0.0 - - - - - - -
25/08:30am 16.2 ENE 11 13 1022.4 - 0.0 - - - - - - -
25/08:00am 14.7 ENE 5 6 1022.1 - 0.0 - - - - - - -
25/07:30am 12.4 NE 5 6 1021.7 - 0.0 - - - - - - -
25/07:00am 10.6 NE 6 10 1021.2 - 0.0 - - - - - - -
25/06:30am 11.2 ENE 8 9 1020.7 - 0.0 - - - - - - -
25/06:00am 11.3 NE 8 9 1020.3 - 0.0 - - - - - - -
25/05:30am 11.2 NE 8 9 1019.8 - 0.0 - - - - - - -
25/05:00am 11.2 ENE 5 7 1019.4 - 0.0 - - - - - - -
25/04:30am 10.1 E 7 8 1019.0 - 0.0 - - - - - - -
25/04:00am 10.3 ESE 8 9 1018.9 - 0.0 - - - - - - -
25/03:30am 10.9 ESE 7 8 1018.7 - 0.0 - - - - - - -
25/03:00am 10.7 SE 9 9 1018.7 - 0.0 - - - - - - -
25/02:30am 11.0 SSE 8 9 1018.9 - 0.0 - - - - - - -
25/02:00am 12.4 SE 6 7 1018.8 - 0.0 - - - - - - -
25/01:30am 12.1 SE 6 7 1018.8 - 0.0 - - - - - - -
25/01:00am 12.3 SSE 5 6 1019.3 - 0.0 - - - - - - -
25/12:30am 12.0 S 3 4 1019.6 - 0.0 - - - - - - -
25/12:00am 12.4 S 4 5 1019.7 - 0.0 - - - - - - -
 
Date/Time
WST
Temp

°C
Wind Pressure Rain
since 9am
mm
Weather Cloud Vis
km
Sea
Height
m
Swell
Dir
 
Speed
knots
Gust
knots
hPa Trend Height
m
Period
s
Dir
24/11:30pm 13.8 S 6 6 1019.7 - 0.0 - - - - - - -
24/11:00pm 14.1 S 6 7 1020.0 - 0.0 - - - - - - -
24/10:30pm 14.1 SW 7 8 1020.1 - 0.0 - - - - - - -
24/10:00pm 14.5 SW 7 8 1020.2 - 0.0 - - - - - - -
24/09:30pm 15.5 WSW 6 7 1020.0 - 0.0 - - - - - - -
24/09:00pm 16.2 WSW 7 9 1020.0 - 0.0 - - - - - - -
24/08:30pm 16.9 WSW 9 11 1019.8 - 0.0 - - - - - - -
24/08:00pm 16.2 WSW 8 10 1019.7 - 0.0 - - - - - - -
24/07:30pm 16.9 WSW 9 11 1019.3 - 0.0 - - - - - - -
24/07:00pm 17.2 W 9 10 1019.2 - 0.0 - - - - - - -
24/06:30pm 17.8 W 8 11 1019.0 - 0.0 - - - - - - -
24/06:00pm 19.2 W 10 12 1018.9 - 0.0 - - - - - - -
24/05:30pm 20.7 W 10 11 1018.7 - 0.0 - - - - - - -
24/05:00pm 21.8 WNW 10 13 1018.5 - 0.0 - - - - - - -
24/04:30pm 22.8 NW 10 12 1018.4 - 0.0 - - - - - - -
24/04:00pm 23.5 NNW 10 13 1018.3 - 0.0 - - - - - - -
24/03:30pm 24.7 NW 10 13 1018.3 - 0.0 - - - - - - -
24/03:00pm 24.5 NNW 10 14 1018.3 - 0.0 - - - - - - -
24/02:30pm 24.5 WNW 10 13 1018.5 - 0.0 - - - - - - -
24/02:00pm 24.6 WSW 5 8 1018.8 - 0.0 - - - - - - -
24/01:30pm 25.1 NE 5 8 1019.3 - 0.0 - - - - - - -
24/01:00pm 25.3 E 7 11 1019.7 - 0.0 - - - - - - -
24/12:30pm 24.6 ENE 8 12 1020.1 - 0.0 - - - - - - -
24/12:00pm 24.2 E 11 13 1020.5 - 0.0 - - - - - - -
24/11:30am 23.4 ESE 13 17 1020.8 - 0.0 - - - - - - -
24/11:00am 22.6 SE 15 19 1021.4 - 0.0 - - - - - - -
24/10:30am 21.6 SE 17 21 1021.8 - 0.0 - - - - - - -
24/10:00am 20.0 SE 16 19 1021.9 - 0.0 - - - - - - -
24/09:30am 19.1 ESE 19 24 1021.7 - 0.0 - - - - - - -
24/09:00am 17.8 ESE 16 21 1021.6 - 0.0 - - - - - - -
24/08:30am 14.8 SSE 11 15 1021.5 - 0.0 - - - - - - -
24/08:00am 13.1 SSE 9 12 1021.3 - 0.0 - - - - - - -
24/07:30am 11.7 SSE 10 12 1021.0 - 0.0 - - - - - - -
24/07:00am 11.1 SSE 11 13 1020.6 - 0.0 - - - - - - -
24/06:30am 11.3 SSE 10 12 1020.5 - 0.0 - - - - - - -
24/06:00am 11.8 SSE 11 14 1020.1 - 0.0 - - - - - - -
24/05:30am 12.4 SSE 12 15 1020.0 - 0.0 - - - - - - -
24/05:00am 12.8 S 14 17 1019.8 - 0.0 - - - - - - -
24/04:30am 12.9 S 14 17 1019.6 - 0.0 - - - - - - -
24/04:00am 13.0 S 14 17 1019.4 - 0.0 - - - - - - -
24/03:30am 13.3 S 14 17 1019.5 - 0.0 - - - - - - -
24/03:00am 13.7 S 15 19 1019.7 - 0.0 - - - - - - -
24/02:30am 13.9 S 14 18 1019.7 - 0.0 - - - - - - -
24/02:00am 14.2 S 12 15 1019.7 - 0.0 - - - - - - -
24/01:30am 14.3 S 13 16 1019.8 - 0.0 - - - - - - -
24/01:00am 14.4 S 13 15 1019.9 - 0.0 - - - - - - -
24/12:30am 14.7 S 12 17 1019.9 - 0.0 - - - - - - -
24/12:00am 14.7 S 12 15 1019.9 - 0.0 - - - - - - -
 
Date/Time
WST
Temp

°C
Wind Pressure Rain
since 9am
mm
Weather Cloud Vis
km
Sea
Height
m
Swell
Dir
 
Speed
knots
Gust
knots
hPa Trend Height
m
Period
s
Dir
23/11:30pm 14.8 S 11 13 1020.0 - 0.0 - - - - - - -
23/11:00pm 15.2 S 11 13 1020.1 - 0.0 - - - - - - -
23/10:30pm 15.2 S 10 13 1020.1 - 0.0 - - - - - - -
23/10:00pm 15.9 S 10 13 1020.0 - 0.0 - - - - - - -
23/09:30pm 16.6 SSW 10 13 1019.8 - 0.0 - - - - - - -
23/09:00pm 16.6 S 9 11 1019.6 - 0.0 - - - - - - -
23/08:30pm 17.2 S 9 11 1019.4 - 0.0 - - - - - - -
23/08:00pm 17.6 SSW 9 11 1019.1 - 0.0 - - - - - - -
23/07:30pm 18.0 SSW 7 8 1018.9 - 0.0 - - - - - - -
23/07:00pm 18.7 S 8 9 1018.6 - 0.0 - - - - - - -
23/06:30pm 19.5 S 9 10 1018.4 - 0.0 - - - - - - -
23/06:00pm 21.2 S 11 13 1018.1 - 0.0 - - - - - - -
23/05:30pm 22.5 S 11 14 1017.8 - 0.0 - - - - - - -
23/05:00pm 23.4 S 12 15 1017.7 - 0.0 - - - - - - -
23/04:30pm 23.9 S 12 15 1017.6 - 0.0 - - - - - - -
23/04:00pm 24.4 SSE 13 17 1017.6 - 0.0 - - - - - - -
23/03:30pm 24.7 SSE 11 16 1017.6 - 0.0 - - - - - - -

Other Formats:

Comma delimited format used in spreadsheet applications
http://www.bom.gov.au/fwo/IDW60701/IDW60701.95305.axf

JavaScript Object Notation format (JSON) in row-major order
http://www.bom.gov.au/fwo/IDW60701/IDW60701.95305.json